Portada
METAR-TAF:

METAR-TAF

Aeroports :

Lebanon, Nova Hampshire, Estats Units d'Amèrica

latitud: 43-37-38N, longitud: 072-18-21W, altitud: 182 m

Observació

L'informe es va fer fa 17 minuts, a les 15:53 UTC
Vent 5 kt del Nord
Temperatura 4°C
Humitat 65%
Pressió 1021 hPa
Visibilitat: 16.1 km
Cel ennuvolat a una alçada de 1500 ft

METAR: KLEB 211553Z 01005KT 10SM BKN015 04/M02 A3016 RMK AO2 SLP218 T00391017

Hora: 11:10 (16:10 UTC)

Pronòstic

L'informe es va fer fa 3 hores i 39 minuts, a les 12:31 UTC
Pronòstic vàlid del 21 a les 12 UTC al 22 a les 12 UTC
Vent 4 kt del Nord/Nord-Oest
Visibilitat: 10 km
Núvols disperses a una alçada de 3500 ft
Temporalment
l' 21 a les 12 UTC al 21 a les 14 UTC
Visibilitat: 0.8 km
Cel ennuvolat a una alçada de 100 ft
boira gebradora
A partir de les 22 a les 0600 UTC
Vent 4 kt del Sud
Visibilitat: 10 km
Cel cobert a una alçada de 5000 ft

TAF: KLEB 211231Z 2112/2212 34004KT P6SM SCT035 TEMPO 2112/2114 1/2SM FZFG BKN001 FM220600 17004KT P6SM OVC050

Observacions i pronòstics meteorològics de més de 4000 aeroports (METAR i TAF).

Les estacions disponibles són els punts grocs i vermells al mapa.

Posi el ratolí al punt desitjat per veure el nom de l'estació.

Feu clic per veure les observacions i els pronòstics meteorològics.

Per canviar el mapa: feu clic els botons verds amb una creu de color negre per apropar; al botó verd amb un guió per allunyar la imatge; o en les fletxes verdes per a mapes adjacents.


METAR-TAF: